Terminal Aerodrome Forecast
Issued by NWS

Home | Current Version | Previous Version | Text Only | Print | Product List | Glossary On
Versions: 1 2 3 4 5 6 7 8 9 10 11 12 13 14 15
000
FTUS42 KMLB 022110 AAB
TAFSFB
TAF AMD
KSFB 022110Z 0221/0318 VRB03KT P6SM FEW040 BKN120
      TEMPO 0221/0222 -TSRA BKN050CB
     FM030300 18003KT P6SM FEW050 SCT250
     FM031400 20004KT P6SM SCT025 SCT250=

USA.gov is the U.S. government's official web portal to all federal, state and local government web resources and services.